sensor_id;sensor_type;location;lat;lon;timestamp;P1;durP1;ratioP1;P2;durP2;ratioP2
22675;SDS011;12521;43.310;21.876;2023-01-19T00:03:35;28.0;;;12.0;;
22675;SDS011;12521;43.310;21.876;2023-01-19T00:08:14;34.0;;;12.0;;
22675;SDS011;12521;43.310;21.876;2023-01-19T00:12:50;34.0;;;12.0;;
22675;SDS011;12521;43.310;21.876;2023-01-19T00:17:27;35.0;;;16.0;;
22675;SDS011;12521;43.310;21.876;2023-01-19T00:22:03;35.0;;;16.0;;
22675;SDS011;12521;43.310;21.876;2023-01-19T00:26:40;36.0;;;20.0;;
22675;SDS011;12521;43.310;21.876;2023-01-19T00:31:17;36.0;;;20.0;;
22675;SDS011;12521;43.310;21.876;2023-01-19T00:35:54;26.0;;;14.0;;
22675;SDS011;12521;43.310;21.876;2023-01-19T00:40:31;26.0;;;14.0;;
22675;SDS011;12521;43.310;21.876;2023-01-19T00:45:15;16.0;;;9.0;;
22675;SDS011;12521;43.310;21.876;2023-01-19T00:49:56;16.0;;;9.0;;
22675;SDS011;12521;43.310;21.876;2023-01-19T00:54:32;18.0;;;8.0;;
22675;SDS011;12521;43.310;21.876;2023-01-19T00:59:10;18.0;;;8.0;;
22675;SDS011;12521;43.310;21.876;2023-01-19T01:03:46;18.0;;;8.0;;
22675;SDS011;12521;43.310;21.876;2023-01-19T01:08:23;19.0;;;8.0;;
22675;SDS011;12521;43.310;21.876;2023-01-19T01:13:00;19.0;;;8.0;;
22675;SDS011;12521;43.310;21.876;2023-01-19T01:17:37;22.0;;;10.0;;
22675;SDS011;12521;43.310;21.876;2023-01-19T01:22:14;22.0;;;10.0;;
22675;SDS011;12521;43.310;21.876;2023-01-19T01:26:50;26.0;;;12.0;;
22675;SDS011;12521;43.310;21.876;2023-01-19T01:31:26;26.0;;;12.0;;
22675;SDS011;12521;43.310;21.876;2023-01-19T01:36:05;26.0;;;14.0;;
22675;SDS011;12521;43.310;21.876;2023-01-19T01:40:43;26.0;;;14.0;;
22675;SDS011;12521;43.310;21.876;2023-01-19T01:45:34;27.0;;;15.0;;
22675;SDS011;12521;43.310;21.876;2023-01-19T01:50:25;27.0;;;15.0;;
22675;SDS011;12521;43.310;21.876;2023-01-19T01:55:13;32.0;;;18.0;;
22675;SDS011;12521;43.310;21.876;2023-01-19T01:59:57;32.0;;;18.0;;
22675;SDS011;12521;43.310;21.876;2023-01-19T02:04:36;37.0;;;21.0;;
22675;SDS011;12521;43.310;21.876;2023-01-19T02:09:17;37.0;;;21.0;;
22675;SDS011;12521;43.310;21.876;2023-01-19T02:13:53;37.0;;;21.0;;
22675;SDS011;12521;43.310;21.876;2023-01-19T02:18:34;37.0;;;21.0;;
22675;SDS011;12521;43.310;21.876;2023-01-19T02:23:38;37.0;;;21.0;;
22675;SDS011;12521;43.310;21.876;2023-01-19T02:37:40;32.0;;;20.0;;
22675;SDS011;12521;43.310;21.876;2023-01-19T02:42:34;32.0;;;20.0;;
22675;SDS011;12521;43.310;21.876;2023-01-19T02:47:15;32.0;;;20.0;;
22675;SDS011;12521;43.310;21.876;2023-01-19T02:51:51;32.0;;;20.0;;
22675;SDS011;12521;43.310;21.876;2023-01-19T02:58:06;33.0;;;18.0;;
22675;SDS011;12521;43.310;21.876;2023-01-19T03:03:31;33.0;;;18.0;;
22675;SDS011;12521;43.310;21.876;2023-01-19T03:08:53;34.0;;;17.0;;
22675;SDS011;12521;43.310;21.876;2023-01-19T03:13:59;34.0;;;17.0;;
22675;SDS011;12521;43.310;21.876;2023-01-19T03:19:04;36.0;;;18.0;;
22675;SDS011;12521;43.310;21.876;2023-01-19T03:24:06;36.0;;;18.0;;
22675;SDS011;12521;43.310;21.876;2023-01-19T03:28:51;39.0;;;18.0;;
22675;SDS011;12521;43.310;21.876;2023-01-19T03:33:48;39.0;;;18.0;;
22675;SDS011;12521;43.310;21.876;2023-01-19T03:38:43;40.0;;;22.0;;
22675;SDS011;12521;43.310;21.876;2023-01-19T03:43:34;40.0;;;22.0;;
22675;SDS011;12521;43.310;21.876;2023-01-19T03:48:16;40.0;;;25.0;;
22675;SDS011;12521;43.310;21.876;2023-01-19T03:53:08;40.0;;;25.0;;
22675;SDS011;12521;43.310;21.876;2023-01-19T03:57:46;38.0;;;22.0;;
22675;SDS011;12521;43.310;21.876;2023-01-19T04:02:23;38.0;;;22.0;;
22675;SDS011;12521;43.310;21.876;2023-01-19T04:07:00;36.0;;;19.0;;
22675;SDS011;12521;43.310;21.876;2023-01-19T04:11:36;36.0;;;19.0;;
22675;SDS011;12521;43.310;21.876;2023-01-19T04:16:12;29.0;;;14.0;;
22675;SDS011;12521;43.310;21.876;2023-01-19T04:20:48;29.0;;;14.0;;
22675;SDS011;12521;43.310;21.876;2023-01-19T04:25:25;22.0;;;10.0;;
22675;SDS011;12521;43.310;21.876;2023-01-19T04:30:07;22.0;;;10.0;;
22675;SDS011;12521;43.310;21.876;2023-01-19T04:34:46;19.0;;;9.0;;
22675;SDS011;12521;43.310;21.876;2023-01-19T04:39:22;19.0;;;9.0;;
22675;SDS011;12521;43.310;21.876;2023-01-19T04:43:59;19.0;;;9.0;;
22675;SDS011;12521;43.310;21.876;2023-01-19T04:48:35;16.0;;;8.0;;
22675;SDS011;12521;43.310;21.876;2023-01-19T04:53:13;16.0;;;8.0;;
22675;SDS011;12521;43.310;21.876;2023-01-19T04:57:49;22.0;;;8.0;;
22675;SDS011;12521;43.310;21.876;2023-01-19T05:02:27;22.0;;;8.0;;
22675;SDS011;12521;43.310;21.876;2023-01-19T05:07:03;28.0;;;9.0;;
22675;SDS011;12521;43.310;21.876;2023-01-19T05:11:40;28.0;;;9.0;;
22675;SDS011;12521;43.310;21.876;2023-01-19T05:16:17;22.0;;;8.0;;
22675;SDS011;12521;43.310;21.876;2023-01-19T05:20:53;22.0;;;8.0;;
22675;SDS011;12521;43.310;21.876;2023-01-19T05:25:29;17.0;;;8.0;;
22675;SDS011;12521;43.310;21.876;2023-01-19T05:30:10;17.0;;;8.0;;
22675;SDS011;12521;43.310;21.876;2023-01-19T05:34:47;25.0;;;10.0;;
22675;SDS011;12521;43.310;21.876;2023-01-19T05:39:24;25.0;;;10.0;;
22675;SDS011;12521;43.310;21.876;2023-01-19T05:44:00;25.0;;;10.0;;
22675;SDS011;12521;43.310;21.876;2023-01-19T05:48:38;33.0;;;11.0;;
22675;SDS011;12521;43.310;21.876;2023-01-19T05:53:15;33.0;;;11.0;;
22675;SDS011;12521;43.310;21.876;2023-01-19T05:57:52;27.0;;;10.0;;
22675;SDS011;12521;43.310;21.876;2023-01-19T06:02:29;27.0;;;10.0;;
22675;SDS011;12521;43.310;21.876;2023-01-19T06:07:06;21.0;;;10.0;;
22675;SDS011;12521;43.310;21.876;2023-01-19T06:11:46;21.0;;;10.0;;
22675;SDS011;12521;43.310;21.876;2023-01-19T06:16:23;24.0;;;12.0;;
22675;SDS011;12521;43.310;21.876;2023-01-19T06:21:06;24.0;;;12.0;;
22675;SDS011;12521;43.310;21.876;2023-01-19T06:25:44;27.0;;;13.0;;
22675;SDS011;12521;43.310;21.876;2023-01-19T06:30:21;27.0;;;13.0;;
22675;SDS011;12521;43.310;21.876;2023-01-19T06:34:58;30.0;;;13.0;;
22675;SDS011;12521;43.310;21.876;2023-01-19T06:39:34;30.0;;;13.0;;
22675;SDS011;12521;43.310;21.876;2023-01-19T06:44:10;30.0;;;13.0;;
22675;SDS011;12521;43.310;21.876;2023-01-19T06:48:46;32.0;;;13.0;;
22675;SDS011;12521;43.310;21.876;2023-01-19T06:53:23;32.0;;;13.0;;
22675;SDS011;12521;43.310;21.876;2023-01-19T06:57:59;31.0;;;13.0;;
22675;SDS011;12521;43.310;21.876;2023-01-19T07:02:40;31.0;;;13.0;;
22675;SDS011;12521;43.310;21.876;2023-01-19T07:07:16;30.0;;;13.0;;
22675;SDS011;12521;43.310;21.876;2023-01-19T07:11:54;30.0;;;13.0;;
22675;SDS011;12521;43.310;21.876;2023-01-19T07:16:31;36.0;;;15.0;;
22675;SDS011;12521;43.310;21.876;2023-01-19T07:21:08;36.0;;;15.0;;
22675;SDS011;12521;43.310;21.876;2023-01-19T07:25:46;41.0;;;17.0;;
22675;SDS011;12521;43.310;21.876;2023-01-19T07:30:22;41.0;;;17.0;;
22675;SDS011;12521;43.310;21.876;2023-01-19T07:34:59;38.0;;;17.0;;
22675;SDS011;12521;43.310;21.876;2023-01-19T07:39:35;38.0;;;17.0;;
22675;SDS011;12521;43.310;21.876;2023-01-19T07:44:12;38.0;;;17.0;;
22675;SDS011;12521;43.310;21.876;2023-01-19T07:48:48;36.0;;;17.0;;
22675;SDS011;12521;43.310;21.876;2023-01-19T07:53:25;36.0;;;17.0;;
22675;SDS011;12521;43.310;21.876;2023-01-19T07:58:01;59.0;;;28.0;;
22675;SDS011;12521;43.310;21.876;2023-01-19T08:02:38;59.0;;;28.0;;
22675;SDS011;12521;43.310;21.876;2023-01-19T08:07:14;82.0;;;38.0;;
22675;SDS011;12521;43.310;21.876;2023-01-19T08:11:50;82.0;;;38.0;;
22675;SDS011;12521;43.310;21.876;2023-01-19T08:16:27;62.0;;;32.0;;
22675;SDS011;12521;43.310;21.876;2023-01-19T08:21:04;62.0;;;32.0;;
22675;SDS011;12521;43.310;21.876;2023-01-19T08:25:43;42.0;;;25.0;;
22675;SDS011;12521;43.310;21.876;2023-01-19T08:30:21;42.0;;;25.0;;
22675;SDS011;12521;43.310;21.876;2023-01-19T08:34:58;38.0;;;20.0;;
22675;SDS011;12521;43.310;21.876;2023-01-19T08:39:35;38.0;;;20.0;;
22675;SDS011;12521;43.310;21.876;2023-01-19T08:44:12;38.0;;;20.0;;
22675;SDS011;12521;43.310;21.876;2023-01-19T08:48:49;33.0;;;15.0;;
22675;SDS011;12521;43.310;21.876;2023-01-19T08:53:27;33.0;;;15.0;;
22675;SDS011;12521;43.310;21.876;2023-01-19T08:58:07;28.0;;;12.0;;
22675;SDS011;12521;43.310;21.876;2023-01-19T09:02:45;28.0;;;12.0;;
22675;SDS011;12521;43.310;21.876;2023-01-19T09:07:23;22.0;;;9.0;;
22675;SDS011;12521;43.310;21.876;2023-01-19T09:12:00;22.0;;;9.0;;
22675;SDS011;12521;43.310;21.876;2023-01-19T09:16:36;18.0;;;8.0;;
22675;SDS011;12521;43.310;21.876;2023-01-19T09:21:12;18.0;;;8.0;;
22675;SDS011;12521;43.310;21.876;2023-01-19T09:26:00;15.0;;;8.0;;
22675;SDS011;12521;43.310;21.876;2023-01-19T09:30:42;15.0;;;8.0;;
22675;SDS011;12521;43.310;21.876;2023-01-19T09:35:19;18.0;;;10.0;;
22675;SDS011;12521;43.310;21.876;2023-01-19T09:39:56;18.0;;;10.0;;
22675;SDS011;12521;43.310;21.876;2023-01-19T09:44:35;18.0;;;10.0;;
22675;SDS011;12521;43.310;21.876;2023-01-19T09:49:24;20.0;;;12.0;;
22675;SDS011;12521;43.310;21.876;2023-01-19T09:54:18;20.0;;;12.0;;
22675;SDS011;12521;43.310;21.876;2023-01-19T09:59:25;16.0;;;10.0;;
22675;SDS011;12521;43.310;21.876;2023-01-19T10:04:42;16.0;;;10.0;;
22675;SDS011;12521;43.310;21.876;2023-01-19T10:10:14;13.0;;;8.0;;
22675;SDS011;12521;43.310;21.876;2023-01-19T10:15:25;11.0;;;8.0;;
22675;SDS011;12521;43.310;21.876;2023-01-19T10:20:37;11.0;;;8.0;;
22675;SDS011;12521;43.310;21.876;2023-01-19T10:25:22;9.0;;;8.0;;
22675;SDS011;12521;43.310;21.876;2023-01-19T10:30:01;9.0;;;8.0;;
22675;SDS011;12521;43.310;21.876;2023-01-19T10:34:42;9.0;;;8.0;;
22675;SDS011;12521;43.310;21.876;2023-01-19T10:39:20;10.0;;;7.0;;
22675;SDS011;12521;43.310;21.876;2023-01-19T10:44:03;10.0;;;7.0;;
22675;SDS011;12521;43.310;21.876;2023-01-19T10:48:43;10.0;;;6.0;;
22675;SDS011;12521;43.310;21.876;2023-01-19T10:53:22;10.0;;;6.0;;
22675;SDS011;12521;43.310;21.876;2023-01-19T10:58:00;9.0;;;6.0;;
22675;SDS011;12521;43.310;21.876;2023-01-19T11:02:49;9.0;;;6.0;;
22675;SDS011;12521;43.310;21.876;2023-01-19T11:07:33;8.0;;;5.0;;
22675;SDS011;12521;43.310;21.876;2023-01-19T11:12:23;8.0;;;5.0;;
22675;SDS011;12521;43.310;21.876;2023-01-19T11:17:00;8.0;;;5.0;;
22675;SDS011;12521;43.310;21.876;2023-01-19T11:21:37;8.0;;;5.0;;
22675;SDS011;12521;43.310;21.876;2023-01-19T11:26:34;8.0;;;5.0;;
22675;SDS011;12521;43.310;21.876;2023-01-19T11:31:34;8.0;;;5.0;;
22675;SDS011;12521;43.310;21.876;2023-01-19T11:36:20;14.0;;;8.0;;
22675;SDS011;12521;43.310;21.876;2023-01-19T11:41:03;14.0;;;8.0;;
22675;SDS011;12521;43.310;21.876;2023-01-19T11:45:44;20.0;;;12.0;;
22675;SDS011;12521;43.310;21.876;2023-01-19T11:50:34;20.0;;;12.0;;
22675;SDS011;12521;43.310;21.876;2023-01-19T11:55:38;16.0;;;11.0;;
22675;SDS011;12521;43.310;21.876;2023-01-19T12:00:37;16.0;;;11.0;;
22675;SDS011;12521;43.310;21.876;2023-01-19T12:05:27;12.0;;;10.0;;
22675;SDS011;12521;43.310;21.876;2023-01-19T12:10:35;12.0;;;10.0;;
22675;SDS011;12521;43.310;21.876;2023-01-19T12:15:41;16.0;;;12.0;;
22675;SDS011;12521;43.310;21.876;2023-01-19T12:20:35;16.0;;;12.0;;
22675;SDS011;12521;43.310;21.876;2023-01-19T12:25:30;19.0;;;15.0;;
22675;SDS011;12521;43.310;21.876;2023-01-19T12:30:27;19.0;;;15.0;;
22675;SDS011;12521;43.310;21.876;2023-01-19T12:35:52;20.0;;;16.0;;
22675;SDS011;12521;43.310;21.876;2023-01-19T12:40:33;20.0;;;16.0;;
22675;SDS011;12521;43.310;21.876;2023-01-19T12:45:22;22.0;;;16.0;;
22675;SDS011;12521;43.310;21.876;2023-01-19T12:50:20;22.0;;;16.0;;
22675;SDS011;12521;43.310;21.876;2023-01-19T12:55:23;18.0;;;14.0;;
22675;SDS011;12521;43.310;21.876;2023-01-19T13:00:37;18.0;;;14.0;;
22675;SDS011;12521;43.310;21.876;2023-01-19T13:05:51;13.0;;;11.0;;
22675;SDS011;12521;43.310;21.876;2023-01-19T13:12:10;13.0;;;11.0;;
22675;SDS011;12521;43.310;21.876;2023-01-19T13:17:22;18.0;;;14.0;;
22675;SDS011;12521;43.310;21.876;2023-01-19T13:23:21;18.0;;;14.0;;
22675;SDS011;12521;43.310;21.876;2023-01-19T13:28:01;22.0;;;18.0;;
22675;SDS011;12521;43.310;21.876;2023-01-19T13:32:44;22.0;;;18.0;;
22675;SDS011;12521;43.310;21.876;2023-01-19T13:37:37;22.0;;;16.0;;
22675;SDS011;12521;43.310;21.876;2023-01-19T13:42:35;22.0;;;16.0;;
22675;SDS011;12521;43.310;21.876;2023-01-19T13:47:42;22.0;;;15.0;;
22675;SDS011;12521;43.310;21.876;2023-01-19T13:52:29;22.0;;;15.0;;
22675;SDS011;12521;43.310;21.876;2023-01-19T13:57:26;30.0;;;21.0;;
22675;SDS011;12521;43.310;21.876;2023-01-19T14:02:20;30.0;;;21.0;;
22675;SDS011;12521;43.310;21.876;2023-01-19T14:07:16;39.0;;;27.0;;
22675;SDS011;12521;43.310;21.876;2023-01-19T14:12:13;39.0;;;27.0;;
22675;SDS011;12521;43.310;21.876;2023-01-19T14:16:53;65.0;;;49.0;;
22675;SDS011;12521;43.310;21.876;2023-01-19T14:21:41;65.0;;;49.0;;
22675;SDS011;12521;43.310;21.876;2023-01-19T14:26:53;91.0;;;71.0;;
22675;SDS011;12521;43.310;21.876;2023-01-19T14:32:16;91.0;;;71.0;;
22675;SDS011;12521;43.310;21.876;2023-01-19T14:36:57;96.0;;;78.0;;
22675;SDS011;12521;43.310;21.876;2023-01-19T14:41:47;96.0;;;78.0;;
22675;SDS011;12521;43.310;21.876;2023-01-19T14:46:25;101.0;;;84.0;;
22675;SDS011;12521;43.310;21.876;2023-01-19T14:51:04;101.0;;;84.0;;
22675;SDS011;12521;43.310;21.876;2023-01-19T14:55:51;92.0;;;74.0;;
22675;SDS011;12521;43.310;21.876;2023-01-19T15:00:31;92.0;;;74.0;;
22675;SDS011;12521;43.310;21.876;2023-01-19T15:05:09;82.0;;;63.0;;
22675;SDS011;12521;43.310;21.876;2023-01-19T15:09:47;82.0;;;63.0;;
22675;SDS011;12521;43.310;21.876;2023-01-19T15:14:24;82.0;;;63.0;;
22675;SDS011;12521;43.310;21.876;2023-01-19T15:19:01;82.0;;;67.0;;
22675;SDS011;12521;43.310;21.876;2023-01-19T15:23:38;82.0;;;67.0;;
22675;SDS011;12521;43.310;21.876;2023-01-19T15:28:19;83.0;;;71.0;;
22675;SDS011;12521;43.310;21.876;2023-01-19T15:32:56;83.0;;;71.0;;
22675;SDS011;12521;43.310;21.876;2023-01-19T15:37:32;81.0;;;68.0;;
22675;SDS011;12521;43.310;21.876;2023-01-19T15:42:13;81.0;;;68.0;;
22675;SDS011;12521;43.310;21.876;2023-01-19T15:46:50;79.0;;;66.0;;
22675;SDS011;12521;43.310;21.876;2023-01-19T15:51:27;79.0;;;66.0;;
22675;SDS011;12521;43.310;21.876;2023-01-19T15:56:09;89.0;;;76.0;;
22675;SDS011;12521;43.310;21.876;2023-01-19T16:00:55;89.0;;;76.0;;
22675;SDS011;12521;43.310;21.876;2023-01-19T16:05:33;99.0;;;85.0;;
22675;SDS011;12521;43.310;21.876;2023-01-19T16:10:10;99.0;;;85.0;;
22675;SDS011;12521;43.310;21.876;2023-01-19T16:14:47;99.0;;;85.0;;
22675;SDS011;12521;43.310;21.876;2023-01-19T16:19:23;96.0;;;77.0;;
22675;SDS011;12521;43.310;21.876;2023-01-19T16:23:59;96.0;;;77.0;;
22675;SDS011;12521;43.310;21.876;2023-01-19T16:28:37;92.0;;;69.0;;
22675;SDS011;12521;43.310;21.876;2023-01-19T16:33:13;92.0;;;69.0;;
22675;SDS011;12521;43.310;21.876;2023-01-19T16:37:50;100.0;;;75.0;;
22675;SDS011;12521;43.310;21.876;2023-01-19T16:42:27;100.0;;;75.0;;
22675;SDS011;12521;43.310;21.876;2023-01-19T16:47:04;108.0;;;81.0;;
22675;SDS011;12521;43.310;21.876;2023-01-19T16:51:42;108.0;;;81.0;;
22675;SDS011;12521;43.310;21.876;2023-01-19T16:56:19;140.0;;;104.0;;
22675;SDS011;12521;43.310;21.876;2023-01-19T17:00:56;140.0;;;104.0;;
22675;SDS011;12521;43.310;21.876;2023-01-19T17:05:32;171.0;;;127.0;;
22675;SDS011;12521;43.310;21.876;2023-01-19T17:10:10;171.0;;;127.0;;
22675;SDS011;12521;43.310;21.876;2023-01-19T17:14:47;171.0;;;127.0;;
22675;SDS011;12521;43.310;21.876;2023-01-19T17:19:23;148.0;;;114.0;;
22675;SDS011;12521;43.310;21.876;2023-01-19T17:24:00;148.0;;;114.0;;
22675;SDS011;12521;43.310;21.876;2023-01-19T17:28:38;125.0;;;102.0;;
22675;SDS011;12521;43.310;21.876;2023-01-19T17:33:17;125.0;;;102.0;;
22675;SDS011;12521;43.310;21.876;2023-01-19T17:37:53;109.0;;;86.0;;
22675;SDS011;12521;43.310;21.876;2023-01-19T17:42:29;109.0;;;86.0;;
22675;SDS011;12521;43.310;21.876;2023-01-19T17:47:06;93.0;;;71.0;;
22675;SDS011;12521;43.310;21.876;2023-01-19T17:51:42;93.0;;;71.0;;
22675;SDS011;12521;43.310;21.876;2023-01-19T17:56:26;104.0;;;81.0;;
22675;SDS011;12521;43.310;21.876;2023-01-19T18:01:14;104.0;;;81.0;;
22675;SDS011;12521;43.310;21.876;2023-01-19T18:05:55;114.0;;;91.0;;
22675;SDS011;12521;43.310;21.876;2023-01-19T18:10:31;114.0;;;91.0;;
22675;SDS011;12521;43.310;21.876;2023-01-19T18:15:12;114.0;;;91.0;;
22675;SDS011;12521;43.310;21.876;2023-01-19T18:19:48;112.0;;;90.0;;
22675;SDS011;12521;43.310;21.876;2023-01-19T18:24:25;112.0;;;90.0;;
22675;SDS011;12521;43.310;21.876;2023-01-19T18:29:02;111.0;;;88.0;;
22675;SDS011;12521;43.310;21.876;2023-01-19T18:33:40;111.0;;;88.0;;
22675;SDS011;12521;43.310;21.876;2023-01-19T18:38:17;106.0;;;86.0;;
22675;SDS011;12521;43.310;21.876;2023-01-19T18:42:54;106.0;;;86.0;;
22675;SDS011;12521;43.310;21.876;2023-01-19T18:47:32;102.0;;;84.0;;
22675;SDS011;12521;43.310;21.876;2023-01-19T18:52:08;102.0;;;84.0;;
22675;SDS011;12521;43.310;21.876;2023-01-19T18:56:44;120.0;;;96.0;;
22675;SDS011;12521;43.310;21.876;2023-01-19T19:01:28;120.0;;;96.0;;
22675;SDS011;12521;43.310;21.876;2023-01-19T19:06:06;137.0;;;107.0;;
22675;SDS011;12521;43.310;21.876;2023-01-19T19:10:44;137.0;;;107.0;;
22675;SDS011;12521;43.310;21.876;2023-01-19T19:15:21;133.0;;;106.0;;
22675;SDS011;12521;43.310;21.876;2023-01-19T19:19:58;133.0;;;106.0;;
22675;SDS011;12521;43.310;21.876;2023-01-19T19:24:35;133.0;;;106.0;;
22675;SDS011;12521;43.310;21.876;2023-01-19T19:29:12;129.0;;;104.0;;
22675;SDS011;12521;43.310;21.876;2023-01-19T19:33:49;129.0;;;104.0;;
22675;SDS011;12521;43.310;21.876;2023-01-19T19:38:28;127.0;;;104.0;;
22675;SDS011;12521;43.310;21.876;2023-01-19T19:43:05;127.0;;;104.0;;
22675;SDS011;12521;43.310;21.876;2023-01-19T19:47:41;125.0;;;103.0;;
22675;SDS011;12521;43.310;21.876;2023-01-19T19:52:18;125.0;;;103.0;;
22675;SDS011;12521;43.310;21.876;2023-01-19T19:56:54;122.0;;;96.0;;
22675;SDS011;12521;43.310;21.876;2023-01-19T20:01:31;122.0;;;96.0;;
22675;SDS011;12521;43.310;21.876;2023-01-19T20:06:16;118.0;;;89.0;;
22675;SDS011;12521;43.310;21.876;2023-01-19T20:11:05;118.0;;;89.0;;
22675;SDS011;12521;43.310;21.876;2023-01-19T20:15:44;96.0;;;76.0;;
22675;SDS011;12521;43.310;21.876;2023-01-19T20:20:20;96.0;;;76.0;;
22675;SDS011;12521;43.310;21.876;2023-01-19T20:24:56;96.0;;;76.0;;
22675;SDS011;12521;43.310;21.876;2023-01-19T20:29:32;75.0;;;64.0;;
22675;SDS011;12521;43.310;21.876;2023-01-19T20:34:19;75.0;;;64.0;;
22675;SDS011;12521;43.310;21.876;2023-01-19T20:39:04;74.0;;;64.0;;
22675;SDS011;12521;43.310;21.876;2023-01-19T20:43:42;74.0;;;64.0;;
22675;SDS011;12521;43.310;21.876;2023-01-19T20:48:18;74.0;;;65.0;;
22675;SDS011;12521;43.310;21.876;2023-01-19T20:52:55;74.0;;;65.0;;
22675;SDS011;12521;43.310;21.876;2023-01-19T20:57:32;72.0;;;60.0;;
22675;SDS011;12521;43.310;21.876;2023-01-19T21:02:10;72.0;;;60.0;;
22675;SDS011;12521;43.310;21.876;2023-01-19T21:06:47;70.0;;;54.0;;
22675;SDS011;12521;43.310;21.876;2023-01-19T21:11:25;70.0;;;54.0;;
22675;SDS011;12521;43.310;21.876;2023-01-19T21:16:05;62.0;;;49.0;;
22675;SDS011;12521;43.310;21.876;2023-01-19T21:20:42;62.0;;;49.0;;
22675;SDS011;12521;43.310;21.876;2023-01-19T21:25:18;62.0;;;49.0;;
22675;SDS011;12521;43.310;21.876;2023-01-19T21:29:54;54.0;;;44.0;;
22675;SDS011;12521;43.310;21.876;2023-01-19T21:34:31;54.0;;;44.0;;
22675;SDS011;12521;43.310;21.876;2023-01-19T21:39:08;47.0;;;39.0;;
22675;SDS011;12521;43.310;21.876;2023-01-19T21:43:46;47.0;;;39.0;;
22675;SDS011;12521;43.310;21.876;2023-01-19T21:48:23;40.0;;;34.0;;
22675;SDS011;12521;43.310;21.876;2023-01-19T21:53:00;40.0;;;34.0;;
22675;SDS011;12521;43.310;21.876;2023-01-19T21:57:38;45.0;;;36.0;;
22675;SDS011;12521;43.310;21.876;2023-01-19T22:02:14;45.0;;;36.0;;
22675;SDS011;12521;43.310;21.876;2023-01-19T22:06:51;50.0;;;39.0;;
22675;SDS011;12521;43.310;21.876;2023-01-19T22:11:30;50.0;;;39.0;;
22675;SDS011;12521;43.310;21.876;2023-01-19T22:16:14;40.0;;;32.0;;
22675;SDS011;12521;43.310;21.876;2023-01-19T22:21:08;40.0;;;32.0;;
22675;SDS011;12521;43.310;21.876;2023-01-19T22:25:48;31.0;;;26.0;;
22675;SDS011;12521;43.310;21.876;2023-01-19T22:30:25;31.0;;;26.0;;
22675;SDS011;12521;43.310;21.876;2023-01-19T22:35:02;31.0;;;26.0;;
22675;SDS011;12521;43.310;21.876;2023-01-19T22:39:39;39.0;;;34.0;;
22675;SDS011;12521;43.310;21.876;2023-01-19T22:44:20;39.0;;;34.0;;
22675;SDS011;12521;43.310;21.876;2023-01-19T22:48:59;47.0;;;41.0;;
22675;SDS011;12521;43.310;21.876;2023-01-19T22:53:36;47.0;;;41.0;;
22675;SDS011;12521;43.310;21.876;2023-01-19T22:58:13;44.0;;;37.0;;
22675;SDS011;12521;43.310;21.876;2023-01-19T23:02:49;44.0;;;37.0;;
22675;SDS011;12521;43.310;21.876;2023-01-19T23:07:25;41.0;;;33.0;;
22675;SDS011;12521;43.310;21.876;2023-01-19T23:12:03;41.0;;;33.0;;
22675;SDS011;12521;43.310;21.876;2023-01-19T23:16:41;29.0;;;24.0;;
22675;SDS011;12521;43.310;21.876;2023-01-19T23:21:26;29.0;;;24.0;;
22675;SDS011;12521;43.310;21.876;2023-01-19T23:26:14;17.0;;;16.0;;
22675;SDS011;12521;43.310;21.876;2023-01-19T23:30:54;17.0;;;16.0;;
22675;SDS011;12521;43.310;21.876;2023-01-19T23:35:33;17.0;;;16.0;;
22675;SDS011;12521;43.310;21.876;2023-01-19T23:40:12;18.0;;;16.0;;
22675;SDS011;12521;43.310;21.876;2023-01-19T23:44:49;18.0;;;16.0;;
22675;SDS011;12521;43.310;21.876;2023-01-19T23:49:26;20.0;;;16.0;;
22675;SDS011;12521;43.310;21.876;2023-01-19T23:54:03;20.0;;;16.0;;
22675;SDS011;12521;43.310;21.876;2023-01-19T23:58:40;24.0;;;21.0;;
